createdAt,value
2019-02-14T00:02:04.528Z,24.40
2019-02-14T00:49:58.416Z,30.93
2019-02-14T00:52:26.796Z,28.77
2019-02-14T00:54:55.183Z,27.83
2019-02-14T00:57:23.567Z,27.77
2019-02-14T00:59:51.953Z,32.30
2019-02-14T01:02:20.339Z,30.60
2019-02-14T01:04:48.723Z,32.23
2019-02-14T01:07:17.119Z,30.03
2019-02-14T01:09:45.512Z,27.50
2019-02-14T01:12:14.059Z,27.80
2019-02-14T01:14:42.456Z,31.27
2019-02-14T01:17:10.832Z,30.63
2019-02-14T01:19:39.231Z,27.33
2019-02-14T01:22:07.609Z,28.83
2019-02-14T01:24:35.999Z,36.63
2019-02-14T01:27:04.384Z,32.43
2019-02-14T01:29:32.836Z,34.33
2019-02-14T01:32:01.224Z,40.13
2019-02-14T01:34:29.616Z,52.70
2019-02-14T01:36:58.008Z,36.10
2019-02-14T01:39:26.397Z,46.03
2019-02-14T01:41:54.768Z,52.63
2019-02-14T01:44:23.232Z,56.30
2019-02-14T01:46:51.801Z,45.63
2019-02-14T01:49:20.188Z,41.10
2019-02-14T01:51:48.571Z,41.97
2019-02-14T01:54:16.972Z,37.93
2019-02-14T01:56:45.369Z,33.23
2019-02-14T01:59:13.744Z,37.60
2019-02-14T02:01:42.142Z,39.90
2019-02-14T02:04:10.515Z,32.87
2019-02-14T02:06:38.907Z,35.83
2019-02-14T02:09:07.284Z,36.57
2019-02-14T02:11:35.659Z,36.80
2019-02-14T02:14:04.220Z,37.07
2019-02-14T02:16:32.605Z,37.37
2019-02-14T02:19:00.991Z,38.97
2019-02-14T02:21:29.372Z,36.63
2019-02-14T02:23:57.764Z,47.40
2019-02-14T02:26:26.150Z,40.30
2019-02-14T02:28:54.542Z,35.87
2019-02-14T02:31:22.935Z,33.87
2019-02-14T02:33:51.328Z,36.37
2019-02-14T02:36:19.721Z,35.37
2019-02-14T02:38:48.171Z,42.40
2019-02-14T02:41:16.569Z,37.83
2019-02-14T02:43:44.951Z,40.17
2019-02-14T02:46:13.345Z,32.50
2019-02-14T02:48:41.723Z,33.87
2019-02-14T02:51:10.133Z,27.97
2019-02-14T02:53:38.499Z,30.23
2019-02-14T02:56:06.891Z,22.73
2019-02-14T02:58:35.272Z,25.97
2019-02-14T03:01:03.655Z,26.10
2019-02-14T03:03:32.048Z,27.53
2019-02-14T03:06:08.613Z,32.17
2019-02-14T03:08:30.563Z,30.43
2019-02-14T03:10:59.022Z,30.00
2019-02-14T03:13:27.412Z,35.67
2019-02-14T03:15:55.800Z,24.43
2019-02-14T03:18:24.203Z,29.60
2019-02-14T03:20:52.580Z,25.63
2019-02-14T03:23:20.955Z,24.37
2019-02-14T03:25:49.344Z,25.53
2019-02-14T03:28:17.716Z,24.27
2019-02-14T03:30:46.115Z,22.00
2019-02-14T03:33:14.505Z,26.07
2019-02-14T03:35:42.900Z,22.23
2019-02-14T03:38:11.275Z,30.00
2019-02-14T03:40:39.662Z,21.40
2019-02-14T03:43:08.056Z,24.90
2019-02-14T03:45:36.447Z,26.13
2019-02-14T03:48:04.832Z,26.10
2019-02-14T03:50:33.223Z,19.87
2019-02-14T03:53:01.610Z,18.07
2019-02-14T03:55:30.043Z,20.47
2019-02-14T03:57:58.431Z,21.83
2019-02-14T04:00:26.811Z,21.03
2019-02-14T04:02:55.207Z,31.77
2019-02-14T04:05:23.592Z,26.47
2019-02-14T04:07:51.996Z,25.23
2019-02-14T04:10:20.380Z,23.97
2019-02-14T04:12:48.773Z,23.13
2019-02-14T04:15:18.204Z,32.17
2019-02-14T04:17:46.588Z,26.67
2019-02-14T04:20:14.971Z,33.23
2019-02-14T04:22:43.367Z,37.23
2019-02-14T04:25:11.755Z,38.47
2019-02-14T04:27:40.158Z,26.60
2019-02-14T04:30:12.892Z,29.33
2019-02-14T04:32:41.267Z,34.77
2019-02-14T04:35:09.805Z,40.73
2019-02-14T04:37:38.199Z,46.37
2019-02-14T04:40:09.595Z,34.73
2019-02-14T04:42:37.991Z,50.80
2019-02-14T04:45:07.911Z,44.77
2019-02-14T04:47:36.307Z,33.43
2019-02-14T04:50:06.632Z,48.30
2019-02-14T04:52:35.027Z,37.07
2019-02-14T04:55:04.083Z,50.60
2019-02-14T04:57:32.466Z,45.30
2019-02-14T05:00:00.864Z,45.13
2019-02-14T05:02:29.260Z,32.73
2019-02-14T05:04:57.647Z,29.93
2019-02-14T05:07:26.040Z,32.30
2019-02-14T05:09:54.421Z,36.07
2019-02-14T05:12:22.804Z,37.20
2019-02-14T05:14:51.204Z,25.13
2019-02-14T05:17:19.591Z,37.23
2019-02-14T05:19:47.988Z,33.90
2019-02-14T05:22:16.371Z,29.63
2019-02-14T05:24:44.763Z,25.30
2019-02-14T05:27:13.140Z,26.10
2019-02-14T05:29:41.534Z,36.50
2019-02-14T05:32:09.913Z,18.77
2019-02-14T05:34:38.304Z,25.80
2019-02-14T05:37:06.685Z,17.23
2019-02-14T05:39:35.076Z,30.37
2019-02-14T05:42:03.455Z,25.67
2019-02-14T05:44:31.856Z,23.33
2019-02-14T05:47:00.232Z,27.50
2019-02-14T05:49:28.631Z,21.37
2019-02-14T05:51:57.012Z,22.17
2019-02-14T05:54:25.403Z,25.23
2019-02-14T05:56:53.780Z,24.97
2019-02-14T05:59:22.168Z,29.87
2019-02-14T06:01:50.547Z,26.47
2019-02-14T06:04:18.923Z,18.47
2019-02-14T06:06:47.311Z,25.73
2019-02-14T06:09:15.695Z,38.20
2019-02-14T06:11:44.092Z,26.90
2019-02-14T06:14:12.483Z,37.17
2019-02-14T06:16:40.932Z,27.70
2019-02-14T06:19:09.326Z,32.03
2019-02-14T06:21:37.703Z,31.93
2019-02-14T06:24:06.091Z,24.17
2019-02-14T06:26:34.475Z,22.03
2019-02-14T06:29:02.875Z,30.50
2019-02-14T06:31:31.255Z,23.27
2019-02-14T06:33:59.639Z,22.57
2019-02-14T06:36:28.043Z,24.93
2019-02-14T06:38:56.407Z,28.67
2019-02-14T06:41:24.783Z,28.20
2019-02-14T06:43:53.172Z,19.20
2019-02-14T06:46:21.555Z,25.73
2019-02-14T06:49:09.285Z,24.07
2019-02-14T06:51:37.676Z,28.70
2019-02-14T06:54:06.051Z,34.90
2019-02-14T06:56:34.437Z,29.50
2019-02-14T06:59:02.836Z,24.20
2019-02-14T07:01:31.215Z,32.97
2019-02-14T07:03:59.603Z,26.97
2019-02-14T07:06:30.685Z,28.53
2019-02-14T07:08:59.083Z,14.77
2019-02-14T07:11:27.460Z,17.07
2019-02-14T07:13:55.843Z,17.20
2019-02-14T07:16:24.236Z,21.83
2019-02-14T07:18:52.622Z,24.77
2019-02-14T07:21:21.803Z,17.27
2019-02-14T07:23:50.367Z,22.60
2019-02-14T07:26:18.759Z,20.87
2019-02-14T07:28:49.418Z,15.77
2019-02-14T07:31:18.135Z,16.00
2019-02-14T07:33:46.520Z,17.13
2019-02-14T07:36:14.912Z,14.93
2019-02-14T07:38:43.283Z,20.63
2019-02-14T07:41:11.671Z,20.60
2019-02-14T07:43:40.271Z,15.33
2019-02-14T07:46:08.662Z,19.80
2019-02-14T07:48:37.036Z,18.00
2019-02-14T07:51:05.411Z,20.83
2019-02-14T07:53:33.795Z,18.43
2019-02-14T07:56:02.184Z,18.30
2019-02-14T07:58:30.588Z,23.03
2019-02-14T08:00:58.963Z,22.03
2019-02-14T08:03:27.356Z,18.43
2019-02-14T08:05:55.736Z,18.93
2019-02-14T08:08:24.114Z,18.33
2019-02-14T08:10:52.504Z,17.27
2019-02-14T08:13:20.883Z,21.83
2019-02-14T08:15:49.264Z,16.10
2019-02-14T08:18:17.655Z,23.17
2019-02-14T08:20:46.038Z,21.23
2019-02-14T08:23:14.640Z,21.17
2019-02-14T08:25:43.036Z,23.37
2019-02-14T08:28:11.416Z,22.50
2019-02-14T08:30:39.791Z,23.43
2019-02-14T08:33:08.179Z,25.23
2019-02-14T08:35:36.572Z,22.27
2019-02-14T08:38:05.095Z,14.03
2019-02-14T08:40:33.823Z,33.13
2019-02-14T08:43:02.216Z,21.27
2019-02-14T08:45:31.079Z,21.87
2019-02-14T08:47:59.472Z,17.30
2019-02-14T08:50:27.853Z,12.50
2019-02-14T08:52:56.244Z,18.47
2019-02-14T08:55:24.624Z,19.47
2019-02-14T08:57:53.016Z,13.23
2019-02-14T09:00:21.397Z,17.67
2019-02-14T09:02:49.790Z,17.73
2019-02-14T09:05:18.164Z,25.40
2019-02-14T09:07:54.231Z,21.03
2019-02-14T09:10:17.200Z,17.63
2019-02-14T09:12:45.576Z,20.33
2019-02-14T09:15:14.991Z,16.30
2019-02-14T09:17:43.377Z,16.37
2019-02-14T09:20:16.591Z,16.90
2019-02-14T09:22:44.973Z,17.67
2019-02-14T09:25:13.443Z,10.50
2019-02-14T09:27:41.814Z,12.97
2019-02-14T09:30:14.711Z,9.87
2019-02-14T09:32:43.160Z,8.43
2019-02-14T09:35:11.623Z,14.27
2019-02-14T09:37:40.000Z,8.57
2019-02-14T09:40:11.499Z,9.40
2019-02-14T09:42:39.875Z,8.93
2019-02-14T09:45:10.926Z,11.60
2019-02-14T09:47:39.366Z,19.87
2019-02-14T09:50:12.757Z,15.23
2019-02-14T09:52:41.714Z,13.03
2019-02-14T09:55:12.242Z,12.37
2019-02-14T09:57:40.637Z,13.40
2019-02-14T10:00:14.183Z,12.50
2019-02-14T10:02:42.581Z,10.23
2019-02-14T10:05:11.296Z,14.83
2019-02-14T10:07:39.684Z,11.20
2019-02-14T10:10:13.714Z,17.53
2019-02-14T10:12:42.083Z,10.70
2019-02-14T10:15:11.096Z,18.03
2019-02-14T10:17:39.479Z,10.00
2019-02-14T10:20:13.320Z,15.50
2019-02-14T10:22:41.703Z,13.27
2019-02-14T10:25:10.841Z,13.63
2019-02-14T10:27:39.216Z,12.77
2019-02-14T10:30:18.927Z,11.07
2019-02-14T10:32:47.300Z,12.40
2019-02-14T10:35:15.744Z,11.93
2019-02-14T10:37:44.379Z,14.40
2019-02-14T10:40:17.048Z,10.33
2019-02-14T10:42:45.449Z,14.07
2019-02-14T10:45:21.480Z,18.10
2019-02-14T10:47:49.868Z,16.10
2019-02-14T10:50:18.243Z,15.77
2019-02-14T10:52:46.631Z,16.03
2019-02-14T10:55:16.056Z,14.53
2019-02-14T10:57:44.515Z,12.63
2019-02-14T11:00:19.368Z,12.47
2019-02-14T11:02:48.034Z,15.23
2019-02-14T11:05:17.355Z,18.67
2019-02-14T11:07:45.729Z,14.53
2019-02-14T11:10:14.959Z,9.07
2019-02-14T11:12:43.331Z,11.77
2019-02-14T11:15:17.096Z,15.17
2019-02-14T11:17:45.494Z,14.00
2019-02-14T11:20:14.816Z,9.17
2019-02-14T11:22:43.212Z,10.33
2019-02-14T11:25:23.220Z,10.87
2019-02-14T11:27:51.622Z,18.67
2019-02-14T11:30:19.997Z,15.77
2019-02-14T11:32:48.383Z,14.37
2019-02-14T11:35:16.831Z,7.97
2019-02-14T11:37:45.224Z,19.60
2019-02-14T11:40:14.448Z,8.50
2019-02-14T11:42:42.837Z,10.80
2019-02-14T11:45:16.728Z,7.23
2019-02-14T11:47:45.112Z,6.17
2019-02-14T11:50:13.581Z,14.13
2019-02-14T11:52:41.956Z,14.53
2019-02-14T11:55:11.584Z,15.40
2019-02-14T11:57:39.963Z,10.50
2019-02-14T12:00:24.265Z,12.87
2019-02-14T12:02:55.462Z,14.50
2019-02-14T12:05:22.771Z,16.20
2019-02-14T12:07:51.153Z,13.57
2019-02-14T12:10:19.541Z,10.13
2019-02-14T12:12:47.936Z,10.50
2019-02-14T12:15:16.312Z,10.77
2019-02-14T12:17:44.703Z,15.97
2019-02-14T12:20:14.724Z,13.13
2019-02-14T12:22:46.830Z,8.53
2019-02-14T12:25:21.916Z,9.77
2019-02-14T12:27:50.424Z,8.83
2019-02-14T12:30:18.809Z,15.30
2019-02-14T12:32:47.190Z,12.40
2019-02-14T12:35:15.577Z,12.43
2019-02-14T12:37:43.956Z,7.57
2019-02-14T12:40:13.585Z,7.80
2019-02-14T12:42:41.963Z,10.48
2019-02-14T12:45:20.457Z,10.50
2019-02-14T12:47:46.356Z,7.60
2019-02-14T12:50:14.734Z,9.83
2019-02-14T12:52:43.129Z,7.33
2019-02-14T12:55:11.516Z,5.78
2019-02-14T12:57:39.907Z,11.12
2019-02-14T13:00:11.535Z,9.00
2019-02-14T13:02:39.940Z,10.00
2019-02-14T13:05:09.135Z,8.13
2019-02-14T13:07:37.520Z,5.47
2019-02-14T13:10:09.300Z,9.90
2019-02-14T13:12:37.696Z,9.85
2019-02-14T13:15:09.151Z,9.25
2019-02-14T13:17:37.521Z,9.90
2019-02-14T13:20:07.552Z,7.70
2019-02-14T13:22:35.932Z,8.65
2019-02-14T13:25:06.811Z,6.95
2019-02-14T13:27:35.208Z,5.25
2019-02-14T13:30:04.644Z,9.98
2019-02-14T13:32:33.020Z,7.67
2019-02-14T13:35:01.403Z,8.75
2019-02-14T13:37:29.799Z,8.33
2019-02-14T13:39:58.179Z,3.55
2019-02-14T13:42:26.574Z,10.55
2019-02-14T13:44:54.963Z,4.42
2019-02-14T13:47:23.329Z,5.03
2019-02-14T13:49:51.728Z,11.25
2019-02-14T13:52:20.168Z,8.25
2019-02-14T13:54:48.562Z,8.13
2019-02-14T13:57:16.945Z,11.28
2019-02-14T13:59:45.335Z,6.80
2019-02-14T14:02:13.720Z,11.35
2019-02-14T14:04:42.116Z,7.05
2019-02-14T14:07:10.497Z,7.90
2019-02-14T14:09:39.091Z,9.33
2019-02-14T14:12:07.552Z,4.00
2019-02-14T14:14:35.933Z,3.37
2019-02-14T14:17:04.316Z,6.08
2019-02-14T14:19:32.726Z,6.33
2019-02-14T14:22:01.102Z,6.15
2019-02-14T14:24:29.480Z,5.65
2019-02-14T14:26:57.860Z,8.28
2019-02-14T14:29:26.244Z,9.33
2019-02-14T14:31:54.642Z,6.70
2019-02-14T14:34:23.032Z,5.55
2019-02-14T14:36:51.426Z,7.20
2019-02-14T14:39:19.807Z,4.10
2019-02-14T14:41:48.195Z,5.72
2019-02-14T14:44:18.217Z,8.53
2019-02-14T14:46:46.676Z,4.03
2019-02-14T14:49:15.055Z,8.40
2019-02-14T14:51:43.444Z,6.83
2019-02-14T14:54:11.832Z,5.63
2019-02-14T14:56:40.219Z,6.67
2019-02-14T14:59:09.458Z,10.70
2019-02-14T15:01:37.822Z,5.57
2019-02-14T15:04:06.208Z,6.80
2019-02-14T15:06:34.591Z,6.87
2019-02-14T15:09:03.152Z,9.77
2019-02-14T15:11:31.528Z,6.30
2019-02-14T15:13:59.992Z,6.20
2019-02-14T15:16:28.387Z,6.30
2019-02-14T15:18:56.764Z,8.77
2019-02-14T15:21:25.162Z,11.47
2019-02-14T15:23:53.535Z,8.77
2019-02-14T15:26:21.938Z,10.50
2019-02-14T15:28:50.316Z,5.80
2019-02-14T15:31:18.698Z,6.63
2019-02-14T15:33:47.080Z,8.73
2019-02-14T15:36:15.473Z,6.00
2019-02-14T15:38:43.861Z,9.33
2019-02-14T15:41:12.243Z,5.50
2019-02-14T15:43:40.623Z,9.67
2019-02-14T15:46:09.025Z,15.27
2019-02-14T15:48:37.395Z,11.73
2019-02-14T15:51:05.777Z,15.63
2019-02-14T15:53:34.184Z,13.83
2019-02-14T15:56:03.349Z,14.27
2019-02-14T15:58:33.175Z,15.87
2019-02-14T16:01:01.644Z,16.80
2019-02-14T16:03:30.031Z,14.27
2019-02-14T16:05:58.426Z,22.37
2019-02-14T16:08:26.823Z,21.50
2019-02-14T16:10:55.907Z,29.60
2019-02-14T16:13:24.363Z,23.10
2019-02-14T16:15:53.897Z,27.03
2019-02-14T16:18:23.671Z,23.20
2019-02-14T16:20:52.975Z,25.13
2019-02-14T16:23:21.369Z,26.33
2019-02-14T16:25:51.685Z,28.17
2019-02-14T16:28:19.855Z,24.17
2019-02-14T16:30:48.244Z,24.83
2019-02-14T16:33:16.624Z,31.33
2019-02-14T16:35:45.023Z,22.63
2019-02-14T16:38:14.046Z,23.13
2019-02-14T16:40:42.555Z,31.83
2019-02-14T16:43:10.950Z,33.53
2019-02-14T16:45:39.331Z,22.37
2019-02-14T16:48:07.712Z,24.90
2019-02-14T16:50:36.096Z,29.93
2019-02-14T16:53:04.507Z,26.13
2019-02-14T16:55:32.904Z,19.20
2019-02-14T16:58:01.295Z,26.93
2019-02-14T17:00:29.676Z,29.13
2019-02-14T17:02:58.067Z,24.27
2019-02-14T17:05:26.451Z,22.43
2019-02-14T17:07:56.130Z,19.67
2019-02-14T17:10:24.800Z,17.13
2019-02-14T17:12:53.171Z,19.80
2019-02-14T17:15:21.555Z,24.40
2019-02-14T17:17:49.935Z,14.83
2019-02-14T17:20:18.316Z,19.50
2019-02-14T17:22:46.699Z,20.97
2019-02-14T17:25:17.125Z,19.20
2019-02-14T17:27:45.196Z,18.70
2019-02-14T17:30:13.583Z,19.63
2019-02-14T17:32:41.965Z,21.93
2019-02-14T17:35:10.349Z,16.23
2019-02-14T17:37:38.731Z,14.63
2019-02-14T17:40:09.355Z,26.53
2019-02-14T17:42:37.754Z,17.83
2019-02-14T17:45:08.898Z,19.90
2019-02-14T17:47:37.275Z,18.17
2019-02-14T17:50:06.300Z,15.03
2019-02-14T17:52:34.692Z,14.80
2019-02-14T17:55:03.141Z,17.40
2019-02-14T17:57:31.515Z,16.30
2019-02-14T17:59:59.905Z,14.43
2019-02-14T18:02:28.734Z,9.73
2019-02-14T18:04:57.261Z,22.20
2019-02-14T18:07:25.646Z,15.43
2019-02-14T18:09:54.033Z,15.73
2019-02-14T18:12:22.420Z,15.63
2019-02-14T18:14:50.791Z,13.03
2019-02-14T18:17:19.159Z,15.33
2019-02-14T18:19:47.548Z,28.77
2019-02-14T18:22:35.265Z,10.27
2019-02-14T18:25:06.402Z,15.30
2019-02-14T18:27:34.786Z,26.03
2019-02-14T18:30:03.995Z,16.50
2019-02-14T18:32:32.385Z,10.40
2019-02-14T18:35:00.760Z,15.97
2019-02-14T18:37:29.153Z,13.57
2019-02-14T18:39:57.528Z,12.03
2019-02-14T18:42:25.916Z,10.73
2019-02-14T18:44:54.304Z,10.27
2019-02-14T18:47:22.679Z,12.43
2019-02-14T18:49:51.347Z,13.23
2019-02-14T18:52:19.707Z,15.80
2019-02-14T18:54:48.103Z,15.93
2019-02-14T18:57:16.478Z,12.60
2019-02-14T18:59:44.849Z,7.63
2019-02-14T19:02:13.236Z,15.43
2019-02-14T19:04:41.623Z,12.53
2019-02-14T19:07:10.091Z,10.77
2019-02-14T19:09:38.521Z,18.63
2019-02-14T19:12:07.479Z,15.10
2019-02-14T19:14:35.862Z,10.57
2019-02-14T19:17:04.306Z,11.50
2019-02-14T19:19:32.691Z,11.33
2019-02-14T19:22:01.075Z,15.50
2019-02-14T19:24:29.464Z,16.53
2019-02-14T19:26:57.849Z,10.03
2019-02-14T19:29:26.224Z,12.30
2019-02-14T19:31:54.603Z,7.33
2019-02-14T19:34:22.980Z,9.67
2019-02-14T19:36:51.372Z,10.43
2019-02-14T19:39:19.760Z,13.37
2019-02-14T19:41:48.402Z,11.10
2019-02-14T19:44:16.783Z,14.43
2019-02-14T19:46:45.167Z,7.90
2019-02-14T19:49:13.536Z,9.07
2019-02-14T19:51:41.909Z,6.47
2019-02-14T19:54:10.300Z,12.50
2019-02-14T19:56:38.680Z,9.27
2019-02-14T19:59:07.988Z,8.80
2019-02-14T20:01:36.425Z,10.30
2019-02-14T20:04:04.798Z,8.10
2019-02-14T20:06:33.171Z,8.63
2019-02-14T20:09:01.570Z,10.50
2019-02-14T20:11:36.801Z,10.33
2019-02-14T20:14:00.060Z,10.70
2019-02-14T20:16:28.427Z,9.50
2019-02-14T20:18:56.799Z,9.97
2019-02-14T20:21:25.191Z,13.73
2019-02-14T20:23:53.566Z,9.47
2019-02-14T20:26:21.944Z,12.73
2019-02-14T20:28:50.344Z,5.43
2019-02-14T20:31:19.028Z,10.73
2019-02-14T20:33:47.408Z,12.40
2019-02-14T20:36:15.792Z,11.77
2019-02-14T20:38:44.180Z,19.07
2019-02-14T20:41:12.632Z,10.27
2019-02-14T20:43:41.020Z,9.20
2019-02-14T20:46:09.393Z,8.33
2019-02-14T20:48:37.769Z,13.10
2019-02-14T20:51:06.177Z,10.30
2019-02-14T20:53:34.537Z,15.30
2019-02-14T20:56:03.209Z,12.20
2019-02-14T20:58:31.574Z,17.53
2019-02-14T21:01:00.323Z,23.23
2019-02-14T21:03:28.708Z,36.70
2019-02-14T21:05:57.085Z,10.47
2019-02-14T21:08:25.467Z,11.30
2019-02-14T21:11:13.196Z,13.97
2019-02-14T21:13:41.571Z,14.50
2019-02-14T21:16:09.986Z,12.13
2019-02-14T21:18:38.368Z,17.53
2019-02-14T21:21:06.741Z,12.53
2019-02-14T21:23:35.138Z,15.20
2019-02-14T21:26:03.498Z,22.77
2019-02-14T21:28:31.957Z,53.40
2019-02-14T21:31:00.336Z,27.57
2019-02-14T21:33:28.732Z,33.90
2019-02-14T21:35:57.106Z,17.30
2019-02-14T21:38:25.499Z,17.57
2019-02-14T21:40:53.879Z,20.27
2019-02-14T21:43:22.275Z,19.47
2019-02-14T21:45:50.651Z,25.93
2019-02-14T21:48:19.025Z,22.30
2019-02-14T21:50:47.408Z,14.93
2019-02-14T21:53:16.063Z,17.30
2019-02-14T21:55:44.461Z,20.90
2019-02-14T21:58:13.256Z,14.60
2019-02-14T22:00:41.663Z,19.03
2019-02-14T22:03:10.056Z,14.43
2019-02-14T22:05:38.696Z,12.93
2019-02-14T22:08:07.381Z,15.67
2019-02-14T22:10:36.517Z,17.17
2019-02-14T22:13:04.901Z,14.80
2019-02-14T22:15:33.275Z,20.10
2019-02-14T22:18:01.907Z,20.43
2019-02-14T22:20:30.284Z,17.87
2019-02-14T22:22:58.659Z,14.73
2019-02-14T22:25:27.041Z,19.17
2019-02-14T22:27:55.428Z,16.10
2019-02-14T22:30:23.819Z,15.37
2019-02-14T22:32:52.196Z,21.13
2019-02-14T22:35:20.576Z,13.50
2019-02-14T22:37:48.960Z,16.90
2019-02-14T22:40:17.349Z,17.60
2019-02-14T22:42:47.536Z,18.07
2019-02-14T22:45:15.897Z,16.43
2019-02-14T22:47:44.836Z,21.30
2019-02-14T22:50:14.071Z,16.37
2019-02-14T22:52:42.534Z,14.60
2019-02-14T22:55:12.357Z,12.27
2019-02-14T22:57:40.916Z,14.10
2019-02-14T23:00:28.920Z,20.80
2019-02-14T23:02:57.304Z,26.63
2019-02-14T23:05:25.746Z,22.77
2019-02-14T23:07:54.123Z,17.30
2019-02-14T23:10:22.507Z,18.27
2019-02-14T23:12:55.642Z,21.43
2019-02-14T23:15:21.077Z,19.23
2019-02-14T23:17:49.465Z,18.13
2019-02-14T23:20:17.831Z,15.57
2019-02-14T23:22:46.215Z,16.03
2019-02-14T23:25:14.594Z,18.67
2019-02-14T23:27:42.967Z,16.63
2019-02-14T23:30:12.298Z,20.43
2019-02-14T23:32:40.664Z,15.93
2019-02-14T23:35:09.051Z,15.57
2019-02-14T23:37:37.428Z,23.13
2019-02-14T23:40:06.952Z,19.07
2019-02-14T23:42:35.327Z,17.40
2019-02-14T23:45:04.554Z,25.17
2019-02-14T23:47:32.928Z,17.30
2019-02-14T23:50:01.318Z,12.13
2019-02-14T23:52:29.687Z,14.30
2019-02-14T23:54:58.063Z,14.27
2019-02-14T23:57:26.453Z,19.83
2019-02-14T23:59:54.844Z,19.00
